Résultats de la compétition "Régionale Verrières " du 12-12-2010 organisée par le comité départemental du 91 - Essonne
     
  Télécharger le fichier CSV.  
     
     

 Circuit "A"

Licence Nom Prénom Temps CN
précédent
Score sur
la course
Différence
8237RAIMBAULTJuste1:01:3471046386-718
11405LOUVETFranck1:03:0768156229-586
7856BOUDETPierre1:05:5962755959-316
12934THOMASJohann1:06:1163945941-453
17775MAURIESBenjamin1:07:2557815832+51
949PARZYCHFrederic1:10:15N/A5597N/A
22963SOUWEINEGérald1:11:29N/A5500N/A
4374BONNEAUMaxime1:12:1563535442-911
8972LEPLATEmmanuel1:12:3957465412-334
3141MOREYEtienne1:14:1753465293-53
17648DUBURQUOISErwan1:14:4160815265-816
10757MARTELFranck1:15:0162545241-1013
20377CADARTYoann1:15:2942885209+921
13445HEALYYann1:16:0454105169-241
2151GILLARDHugues1:16:3461615135-1026
4768RICARDGael1:17:2859455075-870
7857BOUDETAdrien1:17:5946935042+349
932SOLBenoît1:18:32N/A5006N/A
3742JOURDATOlivier1:20:5549944859-135
7630LANNEZVALYann1:21:1604838N/A
22548GUIOTAlexis1:21:3434234820+1397
20013EMOSylvain1:21:4346434811+168
15176QUINQUENELHerve1:22:1747624778+16
18959FERNANDES ANTUNESRomeu1:23:1851764720-456
19344DAEMAdriaan1:24:3340754650+575
8795BARBEDavid1:26:0938234564+741
9675BAUCHETP-Yves1:28:08N/A4461N/A
22156RIBIEREmmanuel1:28:3242714441+170
23097VYVYAN-ROBINSONMark1:29:28N/A4395N/A
14974LAUDEPhilippe1:29:3038624393+531
17983BARAISEJ-Romain1:30:03N/A4366N/A
14998PINCEBertrand1:30:3428654341+1476
8990GUESDONMaxime1:30:5442874325+38
3160CATALONSebastien1:31:0444184317-101
20432JESTINEric1:32:0640974269+172
2171DEVILLERSChristophe1:32:5644944231-263
21472DALLEEric1:34:2535604164+604
883GALPINNicolas1:34:2837754162+387
16588BESCHFrederic1:34:5550904142-948
12185MERMETDamien1:35:27N/A4119N/A
14677COCRIAMONTLaurent1:37:5039514019+68
15811DEBRUYNELaurent1:39:0730303967+937
18327NAVILLEThierry1:39:2340293956-73
20779MEHEUTGuillaume1:39:4135193944+425
5233FALALALaurent1:40:2539633915-48
6335YVEThomas1:41:29N/A3874N/A
12379MONTAGARDFrederic1:44:5136203750+130
1433SERGEANTDominique1:45:5552963712-1584
12177BARBIERPatrick1:46:20N/A3698N/A
23185ROUSSEAUXNicolas1:46:27N/A3694N/A
22780AUGUSTYNOWICZBrice1:47:5703642N/A
22734SAUVESTREDidier1:48:4218393617+1778
20784WUThierry1:49:5931473575+428
22155GABRIELOlivier1:52:5637093481-228
16184FAUQUANTJ-Marie1:54:0136853448-237
14993ELFMONAlexander2:14:4202919N/A
19558ROCHStephaneN/A42760-4276
14995GILLETPascalN/AN/A0N/A
23082KEOSokhaN/AN/A0N/A

  Indice de confiance du circuit (moyenne des différences entre CN et score sur la course des 3 à 10 premiers) : 112




 Circuit "B"

Licence Nom Prénom Temps CN
précédent
Score sur
la course
Différence
20040GOUVERNEURAntoine0:59:5454456075+630
22703GILLETJulien1:01:38N/A5905N/A
10889BORDENAVEClaude1:01:5947745871+1097
7251GRUSELLEFabien1:03:0363865772-614
12114PANNIERPascal1:04:1357125667-45
10755L'HERITIERJean-Philippe1:05:1664135576-837
7019CASTAINGOlivier1:05:4261025539-563
1233CREFCOEURPhilippe1:06:3164805471-1009
3201RAUTURIERChristophe1:07:2456445399-245
4181RAUTURIERBenoit1:08:3557205306-414
18211BLOTGregory1:10:2845365164+628
16776SANCHEZPhilippe1:10:3751565153-3
2448SPAETHDaniel1:11:0551985120-78
1978GASNOTLaurent1:11:3155525089-463
20263LE BRASBruno1:11:5435735061+1488
23346VANLEENEBenoit1:12:37N/A5011N/A
2221BEAUVISAGEChristoph1:13:0947724975+203
17837WITASSELudovick1:14:52N/A4861N/A
7610HEROUARDThierry1:16:0054904788-702
1382GASTINEAUJ-Francois1:16:3349624754-208
19094LEMAIREYann-pierrick1:17:0544354721+286
4178ADRIENChristophe1:18:1048414656-185
22287BERNARDLeo1:20:2136244529+905
8548CLOUARDFrederic1:21:0742844486+202
16119SENTAGNEFrancois1:21:2449874471-516
10751RAOULTPascal1:22:0240094436+427
8889GARNIERVincent1:22:1142424428+186
1384HERTZOGTristan1:22:2643314415+84
1993PERICHONBernard1:24:1160014323-1678
19097COUSSEMENTNicolas1:25:0428794278+1399
15895LACHAUMEPatrick1:25:4844544241-213
16511VINCENTBenoit1:26:1547324219-513
12844PASTORPhilippe1:29:34N/A4063N/A
18615COPGoran1:30:2729164023+1107
8508SELLIERJ-Marc1:30:5445094003-506
22029PINSARDFrédéric1:33:1632553902+647
2142NAELPascal1:33:3649663888-1078
16267FINAUD-GUYOTLionel1:33:4429413882+941
1977FISCHERFrederic1:34:1444803862-618
11999LAURENTMichel1:34:1603860N/A
22313BIBAUTSébastien1:34:2436623855+193
12241VIONLudovic1:34:3037313851+120
22385TOMASSIJean Marc1:38:4124513688+1237
15253DELAVEAUPatrice1:40:2236053626+21
14800DAMBRINEFabrice1:41:4337733578-195
21184MUGICAYvan1:43:5235613504-57
20384DUTERAGEChristian1:47:3126433385+742
16946POTEAUJimmy1:48:4524563346+890
20392JOUFFRAISStéphane1:52:1516483242+1594
16190FLOQUETPatrick1:53:1230803215+135
20982CHENOTFranck1:55:3730553148+93
22932DURAND DAUBINMathieu1:59:57N/A3034N/A
14686HENNELPascal2:00:2725333021+488
6502WOLOCHYannis2:04:0237472934-813
11302CARRIELaurent2:04:5630452913-132
20431WANNAVONGHZManyrath2:15:0620432694+651
14921CLAUSSDidierN/A37710-3771
15226MERIGUETFabienN/A30120-3012

  Indice de confiance du circuit (moyenne des différences entre CN et score sur la course des 3 à 10 premiers) : 160




 Circuit "C"

Licence Nom Prénom Temps CN
précédent
Score sur
la course
Différence
6999MAHIEUPierre0:46:1859866445+459
722FLICOTEAUXRaphael0:50:5861815855-326
6117LESAULTPhilippe0:51:5758625744-118
2252GROSHENSDidier0:55:1760685398-670
8567BARDESPhilippe0:57:2951225191+69
2034BAROUXJacky0:57:5263795157-1222
7702RORAJose1:00:2254674943-524
3194ESTIVALJ-Luc1:00:2351864942-244
1398HERMETAndre1:00:2443284940+612
23700ODLUNDErika1:03:08N/A4726N/A
6961CLOUZEAUJacques1:03:1052814724-557
2091VANNIERValerie1:04:5042734603+330
7902PORTRONAlain1:06:2243144496+182
890GODEFROYRene1:06:4748674468-399
10809GUERINFranck1:07:4643864403+17
12558DUBOISPhilippe1:08:1354614374-1087
8445FINASCeline1:09:4648854277-608
7000GRENOUILLATLise1:09:5946874264-423
18059BRUNDU-LEMAIRESarah1:10:3836934225+532
14947JOUVEBernard1:10:4541544218+64
13387DEBRABANDEREGilles1:10:4640684217+149
22763COURTOISJérémy1:10:5304210N/A
4847CHASTELBernard1:11:3244024171-231
3355CHARIAUJ-Marc1:11:5104153N/A
12226PINAUDMichel1:12:2343624122-240
1386LELOUPPhilippe1:12:3238554114+259
10693JOLLYAntoine1:13:2733944063+669
23680LEPREUX Sébastien1:13:46N/A4045N/A
8122DEROMEGerard1:13:5243234040-283
22600CAVALIERHéloïse1:14:3925903997+1407
9420BLANDINDenis1:14:4443423993-349
1955WIBARTHelier1:14:5935363979+443
20554COFFEDaniel1:17:1330073864+857
22293MARTINFulgencio1:17:2036823859+177
17572TESSIERPatrick1:17:5038723834-38
13398DELAGEJ-Gilles1:18:2703804N/A
18056ADOLPHEPhilippe1:20:1732053717+512
1953SAINT-UPERYPatrick1:21:2136503668+18
13088GRENOUILLATJ-Louis1:21:2937773662-115
5093DROUARDRemi1:24:4033703524+154
23679COUTALAlexandre1:25:47N/A3478N/A
4373BONNEAUMathilde1:25:5439323474-458
19265COUTYAnne1:25:5603472N/A
13174BARDURYEmile1:27:1640613419-642
23946DOCQUINCOURTPascal1:30:35N/A3294N/A
912LOUVETEloise1:33:0534993206-293
9126NOYEyal1:33:3834593187-272
18662NEUVILLEChristian1:33:5441873178-1009
19003PIERSONBlandine1:34:1534173166-251
1980GIESIMaurice1:36:0238623107-755
2018ALARZALuis1:37:1103070N/A
3353BONNEAUPaul1:38:0647083042-1666
12053COUTURIERClaude1:38:3631563026-130
13356THOPARTDavid1:39:3226582998+340
1929CHINCHOLEPaul1:44:2231162859-257
16265DHERVEGwenaelle1:45:1913042833+1529
2160ARLANDISJ-Christoph1:46:0127562815+59
2135COMBATBruno1:54:1027942614-180
15302TARNAUD-LAUDENathal2:06:0419122367+455
13784HERVE-JOUSSEOdileN/AN/A0N/A

  Indice de confiance du circuit (moyenne des différences entre CN et score sur la course des 3 à 10 premiers) : 125




 Circuit "D"

Licence Nom Prénom Temps CN
précédent
Score sur
la course
Différence
4879RAUTURIERQuentin0:40:2547015556+855
5421LOTERIEJ-Francois0:49:2953784538-840
13244VARRONStephanie0:49:5851134494-619
8551CLOUARDLucile0:50:2839324449+517
14684MERIGUETThomas0:50:3729334436+1503
8922ROULLEAUXNoemie0:51:1147924387-405
922PREVOSTPascale0:52:2156994289-1410
23102VIRLOGEUXCésar0:53:29N/A4198N/A
2119VANNIERBernard0:53:5854754161-1314
22398BONNETVincent0:54:5125864094+1508
11559ROULLEAUXJulie0:55:2139194057+138
933SOLMichel0:56:2043973986-411
14681ROGERAymeric0:56:2239803984+4
2146HAMONPatrick0:57:2146943915-779
13744PAULETGuillaume1:01:5241233630-493
886GIRECamille1:02:1042813612-669
571LEPETITMichel1:02:2137763601-175
22292MARTINSylvie1:06:3332843374+90
19345CHARDOTJulia1:07:0227693350+581
8920TOUZAIN ROULLEAUXIsabelle1:07:1537833339-444
1262BEHOTEGUYBernard1:07:3438933323-570
3600LAZAROWICZRichard1:10:2732213187-34
20358COFFEMarie-pierre1:10:4430653175+110
19215PASSELERGUEMarianne1:11:2933003141-159
22408GOURDINCédric1:13:1326573067+410
21021ROLLINRomain1:15:1922692981+712
22539CHARDOTThierry1:15:4715492963+1414
22363BONNETDominique1:17:0902911N/A
1938LEFRANCOISGerard1:17:4236852890-795
3354BONNEAUCatherine1:17:5135762884-692
1379CRENNChristian1:20:2332102793-417
14946LEVREUXNathalie1:23:4132092683-526
3195CLETArlette1:24:0433402671-669
18140AUBERTFabrice1:26:2125412600+59
16309CAVARROCCeline1:29:3517362507+771
23681FLANDINBéatrice1:39:35N/A2255N/A
16687MERIGUETValerie1:40:2814302235+805
10338ROGIERYann1:44:1526002154-446
22314CHARDOTUlrike1:44:2914752149+674
11832RODIERMarie2:00:2801864N/A
18480PAULETSerge2:14:3635141668-1846
23799MOREAUElisabeth2:14:36N/A1668N/A
20372LE GUYADERFrançoise2:28:1419431515-428
9597JANSSONJeanetteN/A36710-3671

  Indice de confiance du circuit (moyenne des différences entre CN et score sur la course des 3 à 10 premiers) : 345




 Circuit "E"

Licence Nom Prénom Temps CN
précédent
Score sur
la course
Différence
20502PEUREYLoann0:35:4723053771+1466
22575DREANOBenjamin0:36:4613773670+2293
20664ERBLANDThibault0:38:0921933537+1344
12560ESTIVALThierry0:39:2832763419+143
23705BERCOTClément0:40:44N/A3313N/A
23568MARTINPascale0:42:06N/A3205N/A
4372PETITGuyonne0:45:0644722992-1480
22359LAMBERT Grégoire0:45:1102987N/A
17433TREPTELSolene0:45:3934752956-519
23687VANLEENE Mathilde0:46:24N/A2908N/A
13926GODEFROYSimon0:48:0630402806-234
23153ERBLANDChristine0:50:23N/A2678N/A
5982BRETDominique0:50:5425562651+95
23064LUSTGARTENTom0:50:57N/A2649N/A
22447LALOUXClément0:52:0212932593+1300
22433MALAKNathan0:52:2517522575+823
22315CHARDOTMarion0:52:3420242567+543
6094LEROUEILM-Paule0:52:4736532557-1096
1381DIEUDONNERoland0:54:1236292490-1139
13087GRENOUILLATAnnick0:55:0127812453-328
1380DIEUDONNEMadeleine0:58:0140252326-1699
14002DUBOISSylvie1:05:0423122074-238
22826JESTINRomain1:07:41N/A1994N/A
8121LEBIAN DEROMEAnnie1:09:1020811951-130
14761DEBRABANDEREClaudine1:12:0323121873-439
23711DREANOJoël1:12:28N/A1862N/A
2004TESSIERAriane1:16:3424921762-730
3370GAWSEWITCHGerald1:28:0924901531-959
9517LORENZOVeronique1:30:0901497N/A
3598LAZAROWICZR-Marie1:34:0916441433-211
295PEETERSSimoneN/A28310-2831

  Indice de confiance du circuit (moyenne des différences entre CN et score sur la course des 3 à 10 premiers) : 483




 Circuit "F"

Licence Nom Prénom Temps CN
précédent
Score sur
la course
Différence
22495ERBLANDPierre0:19:1214642462+998
8552CLOUARDAugustin0:20:0923232346+23
17308BESTELArnault0:23:4722361987-249
22494ERBLANDThomas0:24:1715491946+397
14751DOURDOU-VARRONMalo0:24:5722011894-307
16688PANNIERQuentin0:25:0022711891-380
20717GARINPaul0:25:0201888N/A
17522BLANCHONAlexandre0:26:3720571776-281
23714LINTANFThomas0:26:44N/A1768N/A
12561ESTIVALSolene0:27:1119461739-207
19099PANNIERAxel0:27:4312161705+489
17085LOUVETTheo0:31:3321021498-604
17083LOUVETAlexandra0:33:5616481393-255
20662FEIGNIEREric0:34:249011374+473
17521BLANCHONNicolas0:37:4711381251+113
17045VANNIEREmie0:39:34N/A1195N/A
23713LINTANFFlorian0:40:59N/A1153N/A
19095LEMAIRECléo0:41:4301133N/A
22432PEUREYTristan0:45:47N/A1032N/A
19375MERIGUETEmilie0:45:567821029+247
18261SELLIERMathis0:47:55N/A986N/A
23716LINTANFHugo0:52:53N/A894N/A
21305COMBATAlexandre0:59:56930789-141

  Indice de confiance du circuit (moyenne des différences entre CN et score sur la course des 3 à 10 premiers) : 203






 Retour